Time;durP1;ratioP1;P1;durP2;ratioP2;P2;SDS_P1;SDS_P2;PMS_P1;PMS_P2;Temp;Humidity;BMP_temperature;BMP_pressure;BME280_temperature;BME280_humidity;BME280_pressure;Samples;Min_cycle;Max_cycle;Signal;HPM_P1;HPM_P2
2023/09/24 00:00:20;;;;;;;3.10;2.70;;;19.10;65.30;;;;;;5024214;28;20483;-50
2023/09/24 00:02:51;;;;;;;4.20;3.70;;;19.10;65.30;;;;;;5027396;28;20472;-50
2023/09/24 00:05:19;;;;;;;3.43;3.13;;;19.10;65.20;;;;;;5025092;28;20488;-50
2023/09/24 00:07:48;;;;;;;4.40;3.50;;;19.10;65.20;;;;;;5024065;28;20435;-50
2023/09/24 00:10:17;;;;;;;4.20;2.87;;;19.10;65.30;;;;;;5019751;28;20484;-49
2023/09/24 00:12:45;;;;;;;3.10;2.80;;;19.20;65.30;;;;;;5020943;28;20497;-50
2023/09/24 00:15:14;;;;;;;3.70;2.80;;;19.10;65.30;;;;;;5019042;28;20969;-50
2023/09/24 00:17:42;;;;;;;3.80;3.30;;;19.10;65.20;;;;;;5019631;28;20811;-49
2023/09/24 00:20:15;;;;;;;4.17;2.80;;;19.10;65.20;;;;;;5018060;28;20973;-49
2023/09/24 00:22:44;;;;;;;3.33;3.00;;;19.10;66.40;;;;;;5017789;28;20519;-52
2023/09/24 00:25:14;;;;;;;3.70;2.90;;;19.10;65.20;;;;;;5017038;28;21005;-49
2023/09/24 00:27:42;;;;;;;3.20;2.90;;;19.10;65.20;;;;;;5020720;28;21175;-50
2023/09/24 00:30:13;;;;;;;3.30;3.00;;;19.10;65.20;;;;;;5021143;28;20475;-49
2023/09/24 00:32:41;;;;;;;3.50;3.03;;;19.10;65.30;;;;;;5021448;28;20453;-49
2023/09/24 00:35:10;;;;;;;2.90;2.53;;;19.10;65.20;;;;;;5017150;28;20480;-50
2023/09/24 00:37:41;;;;;;;5.40;3.30;;;19.10;65.30;;;;;;5018656;28;20436;-49
2023/09/24 00:40:11;;;;;;;3.20;2.37;;;19.10;65.30;;;;;;5031803;28;20490;-49
2023/09/24 00:42:40;;;;;;;3.53;3.10;;;19.10;65.20;;;;;;5036693;28;20461;-50
2023/09/24 00:45:11;;;;;;;3.10;2.60;;;19.10;65.30;;;;;;5031972;28;20831;-50
2023/09/24 00:47:43;;;;;;;4.03;2.87;;;19.10;65.20;;;;;;5036682;28;20470;-49
2023/09/24 00:50:12;;;;;;;3.83;2.47;;;19.10;65.20;;;;;;5016001;28;20481;-49
2023/09/24 00:52:43;;;;;;;3.70;3.20;;;19.10;65.20;;;;;;5022638;28;20453;-49
2023/09/24 00:55:13;;;;;;;4.43;2.77;;;19.10;65.20;;;;;;5019424;28;20472;-49
2023/09/24 00:57:42;;;;;;;3.07;2.27;;;19.10;65.30;;;;;;5020779;28;20444;-49
2023/09/24 01:00:16;;;;;;;3.17;2.43;;;19.10;65.20;;;;;;5018794;28;20851;-50
2023/09/24 01:02:46;;;;;;;3.80;3.50;;;19.10;65.30;;;;;;5021254;28;20441;-50
2023/09/24 01:05:15;;;;;;;3.20;2.80;;;19.10;65.30;;;;;;5022095;28;20487;-50
2023/09/24 01:07:44;;;;;;;3.70;2.83;;;19.10;65.20;;;;;;5021603;28;20792;-49
2023/09/24 01:10:13;;;;;;;4.10;2.77;;;19.10;65.20;;;;;;5021386;28;22684;-50
2023/09/24 01:12:54;;;;;;;3.17;2.80;;;19.10;65.20;;;;;;5018718;28;20467;-50
2023/09/24 01:15:24;;;;;;;5.47;3.50;;;19.10;65.30;;;;;;5021537;28;20471;-51
2023/09/24 01:17:53;;;;;;;3.23;2.73;;;19.10;65.30;;;;;;5032518;28;20863;-49
2023/09/24 01:20:24;;;;;;;3.20;2.53;;;19.10;65.20;;;;;;5017365;28;20472;-50
2023/09/24 01:22:54;;;;;;;3.70;2.93;;;19.10;65.20;;;;;;5023717;28;20467;-49
2023/09/24 01:25:22;;;;;;;2.97;2.57;;;19.10;65.20;;;;;;5032962;28;20956;-49
2023/09/24 01:27:51;;;;;;;2.70;2.23;;;19.10;65.20;;;;;;5023071;28;20823;-51
2023/09/24 01:30:20;;;;;;;4.00;2.60;;;19.10;65.20;;;;;;5017022;28;20571;-50
2023/09/24 01:32:50;;;;;;;2.50;2.30;;;19.10;65.20;;;;;;5023640;28;20459;-49
2023/09/24 01:35:25;;;;;;;3.30;2.80;;;19.10;65.20;;;;;;5019419;28;20487;-50
2023/09/24 01:37:57;;;;;;;3.77;2.90;;;19.10;65.20;;;;;;5025045;28;20435;-49
2023/09/24 01:40:27;;;;;;;2.97;2.60;;;19.00;65.10;;;;;;5019815;28;20498;-50
2023/09/24 01:42:57;;;;;;;3.33;3.03;;;19.00;65.10;;;;;;5023092;28;20472;-49
2023/09/24 01:45:26;;;;;;;3.63;2.60;;;19.00;65.10;;;;;;5035486;28;20483;-49
2023/09/24 01:47:55;;;;;;;3.33;2.87;;;19.00;65.10;;;;;;5021757;28;20450;-50
2023/09/24 01:50:27;;;;;;;3.27;2.60;;;19.00;65.20;;;;;;5017332;28;21087;-50
2023/09/24 01:52:58;;;;;;;3.23;2.90;;;19.00;65.10;;;;;;5023392;28;21585;-49
2023/09/24 01:55:27;;;;;;;2.40;2.13;;;19.00;65.10;;;;;;5020873;28;20452;-49
2023/09/24 01:57:55;;;;;;;2.47;2.27;;;19.00;65.20;;;;;;5023607;28;20448;-51
2023/09/24 02:00:25;;;;;;;4.40;3.13;;;19.00;65.10;;;;;;5033260;28;20997;-50
2023/09/24 02:02:56;;;;;;;2.73;2.47;;;19.00;65.20;;;;;;5043998;28;20459;-50
2023/09/24 02:05:25;;;;;;;3.60;2.20;;;19.00;65.10;;;;;;5024402;28;20711;-50
2023/09/24 02:07:54;;;;;;;3.17;2.40;;;19.00;65.10;;;;;;5025652;28;20450;-49
2023/09/24 02:10:25;;;;;;;2.77;2.57;;;19.00;65.10;;;;;;5041786;28;20522;-50
2023/09/24 02:12:54;;;;;;;2.40;1.90;;;19.00;65.20;;;;;;5027276;28;20455;-50
2023/09/24 02:15:25;;;;;;;2.70;2.20;;;19.00;65.00;;;;;;5030565;28;20521;-50
2023/09/24 02:17:53;;;;;;;3.93;2.23;;;19.00;65.20;;;;;;5037666;28;20950;-49
2023/09/24 02:20:24;;;;;;;2.60;2.40;;;19.00;65.00;;;;;;5023170;28;20472;-50
2023/09/24 02:22:56;;;;;;;2.60;2.33;;;19.00;65.10;;;;;;5031642;28;20475;-50
2023/09/24 02:25:26;;;;;;;2.90;2.30;;;19.00;65.10;;;;;;5026327;28;20969;-50
2023/09/24 02:27:55;;;;;;;2.60;2.03;;;19.00;65.00;;;;;;5031990;28;20459;-52
2023/09/24 02:30:25;;;;;;;2.20;1.80;;;18.90;64.70;;;;;;5027880;28;20468;-49
2023/09/24 02:32:59;;;;;;;2.50;2.30;;;18.90;64.80;;;;;;5042443;28;20454;-50
2023/09/24 02:35:28;;;;;;;3.37;2.43;;;18.90;64.90;;;;;;5025294;28;20471;-49
2023/09/24 02:37:58;;;;;;;2.63;1.90;;;18.90;64.90;;;;;;5032086;28;20434;-49
2023/09/24 02:40:28;;;;;;;2.83;2.20;;;18.90;64.80;;;;;;5031731;28;20471;-50
2023/09/24 02:42:57;;;;;;;2.10;1.80;;;18.90;64.80;;;;;;5030995;28;20554;-50
2023/09/24 02:45:27;;;;;;;3.00;2.70;;;18.90;64.80;;;;;;5006272;28;20504;-51
2023/09/24 02:47:56;;;;;;;2.73;2.40;;;18.90;64.90;;;;;;4992767;28;20446;-50
2023/09/24 02:50:27;;;;;;;2.60;2.23;;;18.90;64.90;;;;;;4994502;28;20474;-48
2023/09/24 02:52:58;;;;;;;2.97;2.33;;;18.90;65.00;;;;;;4999104;28;20445;-50
2023/09/24 02:55:29;;;;;;;3.40;2.30;;;18.90;64.90;;;;;;4999542;28;20462;-50
2023/09/24 02:57:57;;;;;;;3.43;2.63;;;18.90;66.10;;;;;;4998826;28;20434;-50
2023/09/24 03:00:33;;;;;;;2.50;2.30;;;18.90;64.90;;;;;;4999701;28;20467;-51
2023/09/24 03:03:05;;;;;;;2.37;2.17;;;18.90;64.70;;;;;;5002163;28;20472;-49
2023/09/24 03:05:34;;;;;;;2.23;1.97;;;18.90;64.70;;;;;;4994825;28;20489;-49
2023/09/24 03:08:04;;;;;;;4.47;2.23;;;18.90;64.80;;;;;;5003659;28;20974;-50
2023/09/24 03:10:35;;;;;;;2.07;1.87;;;18.90;64.60;;;;;;4997748;28;20534;-50
2023/09/24 03:13:04;;;;;;;3.13;2.50;;;18.90;64.60;;;;;;5000587;28;20460;-49
2023/09/24 03:15:33;;;;;;;2.53;2.27;;;18.90;64.50;;;;;;5018918;28;20477;-49
2023/09/24 03:18:02;;;;;;;2.23;2.03;;;18.90;64.80;;;;;;4999527;28;20848;-50
2023/09/24 03:20:31;;;;;;;2.60;2.20;;;18.80;64.70;;;;;;4995855;28;20593;-49
2023/09/24 03:23:02;;;;;;;2.37;1.97;;;18.90;64.80;;;;;;5004392;28;20495;-50
2023/09/24 03:25:33;;;;;;;2.30;2.10;;;18.80;64.60;;;;;;5018229;28;20480;-50
2023/09/24 03:28:02;;;;;;;2.20;2.00;;;18.80;64.70;;;;;;5001552;28;20461;-49
2023/09/24 03:30:31;;;;;;;2.30;1.83;;;18.80;64.70;;;;;;5029332;28;20467;-51
2023/09/24 03:33:00;;;;;;;3.53;2.50;;;18.80;64.70;;;;;;5021038;28;20580;-50
2023/09/24 03:35:30;;;;;;;2.50;2.00;;;18.80;64.60;;;;;;5019832;28;20475;-49
2023/09/24 03:37:59;;;;;;;2.90;2.37;;;18.80;64.60;;;;;;5022329;28;20475;-52
2023/09/24 03:40:28;;;;;;;3.00;2.43;;;18.80;64.60;;;;;;5024582;28;21001;-49
2023/09/24 03:42:59;;;;;;;2.60;2.20;;;18.80;65.90;;;;;;5025928;28;21221;-49
2023/09/24 03:45:27;;;;;;;2.27;1.83;;;18.80;64.50;;;;;;5025123;28;20471;-49
2023/09/24 03:47:57;;;;;;;3.60;2.00;;;18.80;64.50;;;;;;5034069;28;20446;-49
2023/09/24 03:50:26;;;;;;;2.83;1.93;;;18.80;64.60;;;;;;5021342;28;20481;-49
2023/09/24 03:52:56;;;;;;;2.57;2.00;;;18.80;64.70;;;;;;5018615;28;20495;-50
2023/09/24 03:55:25;;;;;;;3.63;1.60;;;18.80;64.80;;;;;;5016755;28;20481;-50
2023/09/24 03:57:53;;;;;;;2.30;2.00;;;18.80;64.80;;;;;;5002655;28;20986;-51
2023/09/24 04:00:24;;;;;;;2.63;1.93;;;18.80;64.70;;;;;;5008719;28;20478;-50
2023/09/24 04:02:53;;;;;;;2.50;2.30;;;18.80;64.70;;;;;;5011968;28;20898;-49
2023/09/24 04:05:23;;;;;;;4.97;2.30;;;18.80;64.70;;;;;;4996929;28;20481;-50
2023/09/24 04:07:55;;;;;;;2.93;2.37;;;18.80;64.60;;;;;;4998843;28;20467;-50
2023/09/24 04:10:27;;;;;;;2.40;2.03;;;18.70;64.30;;;;;;4997749;28;20887;-50
2023/09/24 04:12:57;;;;;;;3.20;2.60;;;18.70;64.60;;;;;;5002096;28;20540;-50
2023/09/24 04:15:28;;;;;;;2.60;2.07;;;18.70;64.70;;;;;;5013534;28;20564;-50
2023/09/24 04:17:59;;;;;;;2.17;1.97;;;18.70;64.60;;;;;;5022695;28;20443;-51
2023/09/24 04:20:29;;;;;;;3.00;2.00;;;18.70;64.70;;;;;;5015876;28;20483;-49
2023/09/24 04:22:57;;;;;;;1.60;1.33;;;18.70;64.70;;;;;;5019237;28;21421;-50
2023/09/24 04:25:26;;;;;;;2.73;2.07;;;18.70;64.70;;;;;;5004214;28;20477;-49
2023/09/24 04:27:55;;;;;;;2.80;2.20;;;18.80;64.60;;;;;;5017949;28;20961;-51
2023/09/24 04:30:25;;;;;;;2.13;1.60;;;18.70;64.60;;;;;;5016687;28;20475;-50
2023/09/24 04:32:57;;;;;;;2.47;1.73;;;18.80;64.70;;;;;;5022888;28;20491;-49
2023/09/24 04:35:27;;;;;;;2.60;1.90;;;18.70;64.70;;;;;;5020401;28;20571;-48
2023/09/24 04:37:55;;;;;;;3.10;1.87;;;18.70;64.60;;;;;;5019077;28;20815;-51
2023/09/24 04:40:25;;;;;;;2.63;1.80;;;18.70;64.60;;;;;;5018392;28;20473;-50
2023/09/24 04:42:53;;;;;;;2.00;1.80;;;18.70;64.50;;;;;;5022229;28;20563;-48
2023/09/24 04:45:21;;;;;;;2.20;1.70;;;18.70;64.60;;;;;;5015705;28;20473;-49
2023/09/24 04:47:49;;;;;;;2.20;1.80;;;18.70;64.60;;;;;;5022044;28;20867;-50
2023/09/24 04:50:20;;;;;;;2.93;1.93;;;18.70;65.80;;;;;;5018989;28;20550;-50
2023/09/24 04:52:50;;;;;;;2.60;2.13;;;18.70;64.70;;;;;;5023065;28;20456;-50
2023/09/24 04:55:18;;;;;;;3.77;1.77;;;18.70;64.60;;;;;;5019017;28;20582;-49
2023/09/24 04:57:47;;;;;;;1.87;1.60;;;18.70;64.60;;;;;;5020711;28;20439;-49
2023/09/24 05:00:16;;;;;;;2.23;1.83;;;18.70;64.60;;;;;;5020117;28;20845;-49
2023/09/24 05:02:47;;;;;;;2.20;1.63;;;18.70;64.50;;;;;;5021945;28;20534;-49
2023/09/24 05:05:16;;;;;;;2.50;1.60;;;18.70;64.60;;;;;;5020316;28;20944;-54
2023/09/24 05:07:46;;;;;;;1.80;1.37;;;18.60;64.40;;;;;;5021308;28;20883;-50
2023/09/24 05:10:14;;;;;;;2.37;1.90;;;18.60;64.40;;;;;;5022274;28;20470;-51
2023/09/24 05:12:42;;;;;;;2.20;1.60;;;18.60;65.70;;;;;;5020449;28;21209;-49
2023/09/24 05:15:11;;;;;;;2.10;1.80;;;18.60;64.50;;;;;;5022819;28;20475;-49
2023/09/24 05:17:40;;;;;;;2.60;1.87;;;18.60;65.70;;;;;;5023020;28;20437;-49
2023/09/24 05:20:10;;;;;;;2.67;1.47;;;18.60;64.50;;;;;;5021170;28;21067;-50
2023/09/24 05:22:39;;;;;;;2.40;1.60;;;18.60;64.50;;;;;;5022051;28;20472;-50
2023/09/24 05:25:09;;;;;;;2.87;1.87;;;18.60;64.50;;;;;;5022223;28;20513;-48
2023/09/24 05:27:37;;;;;;;1.90;1.70;;;18.60;64.40;;;;;;5018088;28;20949;-50
2023/09/24 05:30:07;;;;;;;2.40;2.13;;;18.60;64.50;;;;;;5024596;28;20476;-49
2023/09/24 05:32:36;;;;;;;2.73;1.90;;;18.60;64.50;;;;;;5019713;28;20547;-48
2023/09/24 05:35:05;;;;;;;2.03;1.83;;;18.60;64.40;;;;;;5019609;28;20484;-50
2023/09/24 05:37:34;;;;;;;2.13;1.77;;;18.60;64.50;;;;;;5010449;28;20443;-49
2023/09/24 05:40:03;;;;;;;2.33;1.83;;;18.60;64.30;;;;;;5026498;28;20467;-49
2023/09/24 05:42:33;;;;;;;2.13;1.93;;;18.60;64.40;;;;;;5027701;28;20539;-52
2023/09/24 05:45:01;;;;;;;2.47;2.00;;;18.60;64.50;;;;;;5025884;28;20849;-51
2023/09/24 05:47:30;;;;;;;2.10;1.70;;;18.60;64.50;;;;;;5013595;28;21163;-50
2023/09/24 05:49:58;;;;;;;3.17;1.70;;;18.50;64.40;;;;;;5024492;28;20494;-49
2023/09/24 05:52:26;;;;;;;2.13;1.47;;;18.50;64.20;;;;;;5027695;28;20504;-49
2023/09/24 05:54:55;;;;;;;2.27;1.67;;;18.50;64.30;;;;;;5029653;28;20487;-51
2023/09/24 05:57:26;;;;;;;2.40;1.90;;;18.50;64.30;;;;;;5027448;28;20444;-51
2023/09/24 05:59:56;;;;;;;1.90;1.50;;;18.50;64.40;;;;;;5023863;28;20541;-49
2023/09/24 06:02:25;;;;;;;3.17;2.40;;;18.50;64.30;;;;;;5027091;28;20452;-48
2023/09/24 06:04:54;;;;;;;1.63;1.13;;;18.50;64.30;;;;;;5025137;28;20907;-49
2023/09/24 06:07:24;;;;;;;2.70;1.80;;;18.50;64.40;;;;;;5025737;28;20436;-50
2023/09/24 06:09:52;;;;;;;1.83;1.40;;;18.50;64.50;;;;;;5028459;28;20503;-50
2023/09/24 06:12:21;;;;;;;2.23;1.83;;;18.50;64.50;;;;;;5029511;28;20420;-49
2023/09/24 06:14:50;;;;;;;1.70;1.60;;;18.50;64.50;;;;;;5027017;28;20476;-49
2023/09/24 06:17:19;;;;;;;2.50;2.20;;;18.50;64.50;;;;;;5024919;28;20444;-49
2023/09/24 06:19:48;;;;;;;2.03;1.20;;;18.50;64.40;;;;;;5025491;28;20958;-49
2023/09/24 06:22:16;;;;;;;4.30;2.13;;;18.50;64.50;;;;;;5029292;28;20957;-49
2023/09/24 06:24:44;;;;;;;2.30;1.60;;;18.50;64.40;;;;;;5022253;28;20484;-50
2023/09/24 06:27:13;;;;;;;2.03;1.60;;;18.50;64.50;;;;;;5018855;28;20814;-49
2023/09/24 06:29:41;;;;;;;1.97;1.60;;;18.50;64.50;;;;;;5019515;28;20547;-49
2023/09/24 06:32:10;;;;;;;1.60;1.40;;;18.50;64.40;;;;;;5020482;28;20435;-49
2023/09/24 06:34:40;;;;;;;1.80;1.53;;;18.40;64.20;;;;;;5018677;28;20473;-51
2023/09/24 06:37:08;;;;;;;1.80;1.43;;;18.40;64.30;;;;;;5019074;28;20431;-50
2023/09/24 06:39:36;;;;;;;2.37;1.70;;;18.50;64.50;;;;;;5009059;28;20469;-51
2023/09/24 06:42:04;;;;;;;3.87;3.20;;;18.40;64.20;;;;;;5000978;28;20448;-51
2023/09/24 06:44:33;;;;;;;4.33;2.57;;;18.40;62.30;;;;;;5010398;28;20563;-50
2023/09/24 06:47:01;;;;;;;6.07;2.10;;;18.40;62.30;;;;;;5029713;28;20443;-52
2023/09/24 06:49:29;;;;;;;2.37;1.63;;;18.40;62.30;;;;;;5021019;28;20467;-48
2023/09/24 06:51:59;;;;;;;5.40;2.60;;;18.30;61.40;;;;;;5023910;28;20991;-49
2023/09/24 06:54:27;;;;;;;3.70;2.50;;;18.30;62.20;;;;;;5030589;28;20467;-49
2023/09/24 06:56:55;;;;;;;2.73;2.00;;;18.20;62.10;;;;;;5029561;28;20436;-49
2023/09/24 06:59:23;;;;;;;3.57;1.90;;;18.20;62.10;;;;;;5016264;28;20560;-48
2023/09/24 07:01:52;;;;;;;2.53;1.90;;;18.20;62.10;;;;;;5007987;28;20433;-51
2023/09/24 07:04:21;;;;;;;5.63;2.90;;;18.20;62.10;;;;;;5009919;28;21044;-49
2023/09/24 07:06:51;;;;;;;5.40;2.40;;;18.30;62.20;;;;;;4990096;28;21105;-49
2023/09/24 07:09:21;;;;;;;3.00;2.20;;;18.30;62.30;;;;;;5011369;28;20475;-49
2023/09/24 07:11:49;;;;;;;2.50;1.57;;;18.30;62.20;;;;;;5014501;28;20449;-49
2023/09/24 07:14:19;;;;;;;2.60;1.97;;;18.30;62.20;;;;;;5012296;28;21112;-48
2023/09/24 07:16:48;;;;;;;3.50;2.73;;;18.30;62.20;;;;;;5021314;28;20949;-48
2023/09/24 07:19:18;;;;;;;3.33;2.30;;;18.30;62.20;;;;;;5019736;28;20989;-50
2023/09/24 07:21:48;;;;;;;2.10;1.73;;;18.30;62.20;;;;;;5003557;28;20450;-49
2023/09/24 07:24:17;;;;;;;2.90;1.70;;;18.30;62.40;;;;;;5014530;28;20495;-49
2023/09/24 07:26:46;;;;;;;3.90;1.80;;;18.30;62.30;;;;;;5030419;28;20467;-49
2023/09/24 07:29:15;;;;;;;2.20;1.50;;;18.30;62.70;;;;;;5026804;28;20875;-49
2023/09/24 07:31:43;;;;;;;2.30;1.63;;;18.30;63.00;;;;;;5029583;28;20435;-49
2023/09/24 07:34:11;;;;;;;3.80;2.20;;;18.30;63.10;;;;;;5030936;28;20562;-49
2023/09/24 07:36:41;;;;;;;4.10;2.20;;;18.30;62.90;;;;;;5020838;28;20463;-49
2023/09/24 07:39:29;;;;;;;2.53;1.70;;;18.30;62.90;;;;;;5027877;28;20546;-49
2023/09/24 07:41:59;;;;;;;4.33;1.50;;;18.30;63.10;;;;;;5035735;28;20423;-49
2023/09/24 07:44:27;;;;;;;2.53;1.60;;;18.30;63.10;;;;;;5026399;28;20538;-49
2023/09/24 07:46:55;;;;;;;2.13;1.90;;;18.30;63.20;;;;;;5049625;28;20459;-48
2023/09/24 07:49:24;;;;;;;2.47;1.70;;;18.30;63.10;;;;;;5023969;28;20481;-49
2023/09/24 07:51:52;;;;;;;6.70;2.33;;;18.30;63.10;;;;;;5023703;28;20543;-49
2023/09/24 07:54:20;;;;;;;3.53;1.83;;;18.30;63.20;;;;;;5029146;28;20476;-48
2023/09/24 07:56:48;;;;;;;2.40;2.03;;;18.30;63.10;;;;;;5027273;28;20443;-49
2023/09/24 07:59:19;;;;;;;3.10;1.90;;;18.30;63.10;;;;;;5023643;28;20538;-51
2023/09/24 08:01:47;;;;;;;2.60;1.70;;;18.30;63.10;;;;;;5023448;28;20972;-49
2023/09/24 08:04:15;;;;;;;2.17;1.80;;;18.30;63.20;;;;;;5031367;28;20494;-49
2023/09/24 08:06:43;;;;;;;2.00;1.40;;;18.30;63.20;;;;;;5019186;28;20443;-49
2023/09/24 08:09:12;;;;;;;2.53;1.63;;;18.30;63.30;;;;;;5034027;28;20459;-48
2023/09/24 08:11:54;;;;;;;2.57;1.67;;;18.30;63.40;;;;;;5035529;28;20516;-49
2023/09/24 08:14:24;;;;;;;2.13;1.60;;;18.30;63.50;;;;;;5027877;28;20483;-48
2023/09/24 08:16:52;;;;;;;3.00;1.73;;;18.40;63.60;;;;;;5021961;28;20484;-49
2023/09/24 08:19:21;;;;;;;3.13;1.70;;;18.40;63.30;;;;;;5020444;28;20455;-49
2023/09/24 08:21:49;;;;;;;2.10;1.53;;;18.40;63.50;;;;;;5017345;28;20440;-50
2023/09/24 08:24:17;;;;;;;2.37;1.63;;;18.40;63.30;;;;;;5016047;28;20994;-51
2023/09/24 08:26:45;;;;;;;1.90;1.70;;;18.40;63.20;;;;;;5019809;28;20451;-49
2023/09/24 08:29:13;;;;;;;1.83;1.53;;;18.40;63.20;;;;;;5017216;28;20541;-49
2023/09/24 08:31:43;;;;;;;2.70;1.70;;;18.40;63.10;;;;;;5020450;28;20458;-49
2023/09/24 08:34:12;;;;;;;2.07;1.57;;;18.40;63.00;;;;;;5022495;28;20575;-49
2023/09/24 08:36:40;;;;;;;2.30;1.50;;;18.40;62.30;;;;;;5016736;28;20452;-48
2023/09/24 08:39:09;;;;;;;2.50;1.33;;;18.50;62.50;;;;;;5019767;28;21055;-50
2023/09/24 08:41:43;;;;;;;2.07;1.30;;;18.50;62.60;;;;;;5022472;28;20467;-50
2023/09/24 08:44:15;;;;;;;3.20;1.50;;;18.50;62.60;;;;;;5016408;28;20461;-50
2023/09/24 08:46:45;;;;;;;3.90;1.80;;;18.50;62.70;;;;;;5019531;28;20497;-50
2023/09/24 08:49:14;;;;;;;1.90;1.40;;;18.50;62.80;;;;;;5022405;28;20463;-49
2023/09/24 08:51:45;;;;;;;2.33;1.50;;;18.50;63.00;;;;;;5013576;28;20503;-49
2023/09/24 08:54:14;;;;;;;2.10;1.50;;;18.50;63.00;;;;;;5020764;28;20474;-51
2023/09/24 08:56:43;;;;;;;1.93;1.47;;;18.50;62.90;;;;;;5019320;28;20540;-50
2023/09/24 08:59:11;;;;;;;1.93;1.40;;;18.50;62.80;;;;;;5021421;28;20551;-49
2023/09/24 09:01:39;;;;;;;1.87;1.50;;;18.50;62.70;;;;;;5020295;28;20433;-49
2023/09/24 09:04:08;;;;;;;2.23;1.53;;;18.50;62.60;;;;;;5017842;28;20467;-49
2023/09/24 09:06:37;;;;;;;2.20;1.43;;;18.50;62.80;;;;;;5018748;28;21068;-50
2023/09/24 09:09:06;;;;;;;2.33;1.80;;;18.50;62.90;;;;;;5023454;28;20562;-50
2023/09/24 09:11:38;;;;;;;2.20;1.37;;;18.50;63.10;;;;;;5019955;28;20833;-49
2023/09/24 09:14:08;;;;;;;2.10;1.77;;;18.50;63.10;;;;;;5016849;28;20489;-53
2023/09/24 09:16:55;;;;;;;1.80;1.13;;;18.50;63.20;;;;;;5022939;28;20529;-50
2023/09/24 09:19:25;;;;;;;1.57;1.20;;;18.50;63.20;;;;;;5020875;28;20466;-50
2023/09/24 09:21:53;;;;;;;2.10;1.53;;;18.50;63.20;;;;;;5020154;28;20437;-49
2023/09/24 09:24:23;;;;;;;1.73;1.30;;;18.50;63.30;;;;;;5022051;28;20876;-49
2023/09/24 09:26:55;;;;;;;2.80;1.93;;;18.50;63.20;;;;;;5021913;28;20465;-50
2023/09/24 09:29:24;;;;;;;2.40;1.20;;;18.50;64.50;;;;;;5019753;28;20582;-49
2023/09/24 09:31:54;;;;;;;1.93;1.40;;;18.50;63.30;;;;;;5023863;28;20440;-50
2023/09/24 09:34:23;;;;;;;2.50;1.20;;;18.50;63.30;;;;;;5023003;28;20921;-50
2023/09/24 09:36:53;;;;;;;1.77;1.50;;;18.50;63.20;;;;;;5016674;28;20444;-49
2023/09/24 09:39:21;;;;;;;1.97;1.30;;;18.50;63.30;;;;;;5024208;28;20467;-49
2023/09/24 09:41:53;;;;;;;1.60;1.00;;;18.50;63.20;;;;;;5020316;28;20433;-49
2023/09/24 09:44:25;;;;;;;2.27;1.50;;;18.50;63.10;;;;;;5018073;28;21058;-49
2023/09/24 09:47:00;;;;;;;1.57;1.13;;;18.50;63.10;;;;;;5019966;28;20978;-49
2023/09/24 09:49:32;;;;;;;1.60;1.10;;;18.50;63.10;;;;;;5024527;28;20550;-49
2023/09/24 09:52:02;;;;;;;3.33;1.40;;;18.50;63.20;;;;;;5015232;28;20447;-51
2023/09/24 09:54:35;;;;;;;2.93;1.10;;;18.50;61.60;;;;;;5028449;28;20503;-50
2023/09/24 09:57:04;;;;;;;1.90;1.20;;;18.50;62.40;;;;;;5020144;28;20446;-50
2023/09/24 09:59:35;;;;;;;2.17;1.40;;;18.50;62.40;;;;;;5021845;28;20475;-50
2023/09/24 10:02:04;;;;;;;1.70;1.20;;;18.50;62.40;;;;;;5023036;28;20435;-51
2023/09/24 10:04:34;;;;;;;2.87;1.20;;;18.50;62.40;;;;;;5018417;28;20480;-48
2023/09/24 10:07:06;;;;;;;4.70;1.50;;;18.50;62.40;;;;;;5020902;28;20490;-49
2023/09/24 10:09:35;;;;;;;4.37;1.20;;;18.60;62.50;;;;;;5020887;28;20464;-51
2023/09/24 10:12:07;;;;;;;1.40;1.10;;;18.60;62.50;;;;;;5022025;28;20442;-49
2023/09/24 10:14:37;;;;;;;2.07;1.40;;;18.60;62.50;;;;;;5018684;28;20610;-49
2023/09/24 10:17:25;;;;;;;2.50;1.43;;;18.60;62.60;;;;;;5018412;28;20441;-49
2023/09/24 10:19:54;;;;;;;2.50;1.43;;;18.60;62.50;;;;;;5011747;28;20469;-49
2023/09/24 10:22:32;;;;;;;1.93;1.30;;;18.60;62.50;;;;;;5024484;28;20452;-49
2023/09/24 10:25:02;;;;;;;1.97;1.40;;;18.60;62.60;;;;;;5028726;28;20847;-51
2023/09/24 10:27:33;;;;;;;1.77;1.07;;;18.60;62.50;;;;;;5021421;28;20958;-49
2023/09/24 10:30:09;;;;;;;2.50;1.20;;;18.60;62.50;;;;;;5027319;28;20813;-49
2023/09/24 10:32:45;;;;;;;1.40;1.23;;;18.60;62.50;;;;;;5025927;28;20451;-51
2023/09/24 10:35:14;;;;;;;3.07;1.27;;;18.60;62.50;;;;;;5020323;28;20486;-49
2023/09/24 10:38:13;;;;;;;1.93;1.53;;;18.60;62.50;;;;;;5019220;28;20440;-50
2023/09/24 10:41:05;;;;;;;2.17;1.17;;;18.60;62.50;;;;;;5016698;28;20483;-50
2023/09/24 10:43:33;;;;;;;1.70;1.10;;;18.60;62.50;;;;;;5034444;28;20467;-50
2023/09/24 10:46:27;;;;;;;1.87;1.13;;;18.60;62.50;;;;;;5026903;28;20474;-51
2023/09/24 10:48:56;;;;;;;1.63;0.90;;;18.60;62.50;;;;;;5028811;28;20464;-50
2023/09/24 10:51:25;;;;;;;1.20;0.90;;;18.60;62.50;;;;;;5019187;28;20460;-49
2023/09/24 10:54:13;;;;;;;4.03;1.93;;;18.60;62.50;;;;;;5019773;28;20476;-51
2023/09/24 10:56:45;;;;;;;2.20;0.77;;;18.60;62.50;;;;;;5018319;28;20547;-50
2023/09/24 10:59:14;;;;;;;2.30;1.00;;;18.60;62.50;;;;;;5025476;28;20476;-49
2023/09/24 11:01:42;;;;;;;1.53;1.07;;;18.60;62.50;;;;;;5028931;28;20517;-51
2023/09/24 11:04:10;;;;;;;2.13;1.20;;;18.60;62.50;;;;;;5024367;28;20458;-49
2023/09/24 11:06:38;;;;;;;2.30;1.13;;;18.60;62.50;;;;;;5021704;28;20976;-49
2023/09/24 11:09:18;;;;;;;2.07;1.10;;;18.60;62.50;;;;;;5030638;28;20451;-50
2023/09/24 11:11:47;;;;;;;2.50;1.33;;;18.70;62.60;;;;;;5024033;28;20449;-50
2023/09/24 11:14:22;;;;;;;1.93;0.80;;;18.70;62.60;;;;;;5011295;28;20481;-51
2023/09/24 11:16:52;;;;;;;1.93;1.20;;;18.70;62.60;;;;;;5015466;28;20436;-51
2023/09/24 11:19:41;;;;;;;1.10;0.93;;;18.70;62.70;;;;;;5019303;28;20857;-49
2023/09/24 11:22:17;;;;;;;1.53;1.00;;;18.70;62.60;;;;;;5018561;28;20979;-50
2023/09/24 11:24:50;;;;;;;2.77;1.20;;;18.70;62.60;;;;;;5020889;28;20866;-50
2023/09/24 11:27:19;;;;;;;1.27;0.87;;;18.70;62.60;;;;;;5015889;28;20480;-50
2023/09/24 11:29:57;;;;;;;1.70;0.80;;;18.70;62.60;;;;;;5021434;28;20462;-49
2023/09/24 11:32:27;;;;;;;1.57;1.10;;;18.70;62.60;;;;;;5021724;28;20865;-50
2023/09/24 11:35:08;;;;;;;1.53;1.07;;;18.70;62.60;;;;;;5012275;28;20578;-50
2023/09/24 11:37:50;;;;;;;1.33;0.77;;;18.70;62.60;;;;;;5017283;28;20858;-52
2023/09/24 11:40:28;;;;;;;1.60;0.97;;;18.70;62.60;;;;;;5014396;28;20480;-52
2023/09/24 11:42:58;;;;;;;1.63;1.13;;;18.70;62.60;;;;;;5017884;28;20478;-50
2023/09/24 11:45:38;;;;;;;1.60;1.00;;;18.70;62.60;;;;;;5016237;28;20468;-50
2023/09/24 11:48:10;;;;;;;2.20;1.53;;;18.70;62.60;;;;;;5019534;28;21000;-49
2023/09/24 11:50:40;;;;;;;1.63;1.20;;;18.70;62.70;;;;;;5015496;28;20478;-50
2023/09/24 11:53:08;;;;;;;1.83;1.10;;;18.70;62.60;;;;;;5019282;28;20471;-49
2023/09/24 11:55:38;;;;;;;2.43;1.20;;;18.70;62.60;;;;;;5017077;28;20468;-50
2023/09/24 11:58:06;;;;;;;2.50;1.13;;;18.70;62.60;;;;;;5014160;28;21081;-49
2023/09/24 12:00:36;;;;;;;1.20;0.80;;;18.70;62.60;;;;;;5019938;28;20640;-49
2023/09/24 12:03:05;;;;;;;4.43;1.20;;;18.80;62.60;;;;;;5018245;28;21111;-49
2023/09/24 12:05:34;;;;;;;1.80;0.90;;;18.80;62.70;;;;;;5019224;28;20479;-50
2023/09/24 12:08:04;;;;;;;1.60;0.90;;;18.80;62.70;;;;;;5023702;28;21139;-50
2023/09/24 12:10:33;;;;;;;1.20;0.90;;;18.80;61.90;;;;;;5022218;28;20479;-49
2023/09/24 12:13:04;;;;;;;2.53;1.00;;;18.80;62.10;;;;;;5015669;28;20515;-49
2023/09/24 12:15:33;;;;;;;1.00;0.80;;;18.80;62.40;;;;;;5019699;28;20848;-50
2023/09/24 12:18:04;;;;;;;1.93;0.80;;;18.80;62.80;;;;;;5031960;28;20880;-50
2023/09/24 12:20:34;;;;;;;1.97;1.00;;;18.80;62.60;;;;;;5017780;28;20538;-49
2023/09/24 12:23:06;;;;;;;1.47;0.77;;;18.80;64.00;;;;;;5021830;28;20452;-51
2023/09/24 12:25:35;;;;;;;1.83;1.10;;;18.70;62.00;;;;;;5022713;28;20870;-50
2023/09/24 12:28:09;;;;;;;1.50;1.30;;;18.80;62.70;;;;;;5015086;28;20491;-51
2023/09/24 12:30:38;;;;;;;1.80;1.10;;;18.70;62.60;;;;;;5020323;28;20468;-50
2023/09/24 12:33:07;;;;;;;0.93;0.63;;;18.70;62.60;;;;;;5013529;28;20509;-57
2023/09/24 12:35:41;;;;;;;1.80;1.03;;;18.70;62.60;;;;;;5016192;28;20471;-49
2023/09/24 12:38:11;;;;;;;0.93;0.70;;;18.70;63.10;;;;;;5017873;28;20432;-49
2023/09/24 12:40:39;;;;;;;1.30;0.90;;;18.80;58.00;;;;;;5014525;28;20883;-52
2023/09/24 12:43:09;;;;;;;1.77;0.93;;;18.90;58.10;;;;;;5019602;28;20459;-52
2023/09/24 12:45:37;;;;;;;1.83;0.90;;;18.90;58.60;;;;;;5002039;28;20480;-51
2023/09/24 12:48:07;;;;;;;1.10;0.80;;;18.90;58.70;;;;;;5014106;28;20468;-51
2023/09/24 12:50:35;;;;;;;1.60;1.10;;;18.80;59.10;;;;;;5009447;28;20490;-50
2023/09/24 12:53:04;;;;;;;1.73;0.93;;;18.80;59.80;;;;;;5010520;28;20490;-49
2023/09/24 12:55:32;;;;;;;1.30;0.97;;;18.80;60.10;;;;;;5011279;28;20984;-51
2023/09/24 12:58:01;;;;;;;1.27;0.90;;;18.80;60.10;;;;;;5012620;28;20451;-50
2023/09/24 13:00:30;;;;;;;1.27;0.80;;;18.80;60.30;;;;;;5017083;28;20476;-50
2023/09/24 13:02:59;;;;;;;1.70;1.13;;;18.80;60.60;;;;;;5014941;28;20461;-50